createdAt,value
2018-03-03T00:02:02.724Z,59.47
2018-03-03T00:04:31.622Z,62.07
2018-03-03T00:06:59.804Z,62.03
2018-03-03T00:09:27.988Z,58.50
2018-03-03T00:11:56.119Z,60.03
2018-03-03T00:14:24.283Z,58.43
2018-03-03T00:16:52.465Z,61.27
2018-03-03T00:19:21.420Z,56.27
2018-03-03T00:21:49.563Z,64.27
2018-03-03T00:24:20.617Z,58.47
2018-03-03T00:26:49.991Z,57.90
2018-03-03T00:29:19.355Z,58.93
2018-03-03T00:31:48.727Z,61.23
2018-03-03T00:34:18.223Z,58.90
2018-03-03T00:36:47.620Z,63.70
2018-03-03T00:39:17.022Z,60.53
2018-03-03T00:41:46.404Z,63.73
2018-03-03T00:44:17.804Z,62.20
2018-03-03T00:46:47.185Z,65.50
2018-03-03T00:49:16.614Z,66.23
2018-03-03T00:51:45.963Z,65.30
2018-03-03T00:54:15.397Z,66.97
2018-03-03T00:56:44.838Z,71.57
2018-03-03T00:59:14.267Z,68.60
2018-03-03T01:01:43.673Z,75.33
2018-03-03T01:04:13.277Z,79.23
2018-03-03T01:06:42.677Z,69.00
2018-03-03T01:09:12.088Z,72.80
2018-03-03T01:11:41.472Z,76.80
2018-03-03T01:14:10.884Z,69.07
2018-03-03T01:16:40.251Z,92.55
2018-03-03T01:19:09.698Z,69.47
2018-03-03T01:21:39.089Z,65.80
2018-03-03T01:24:08.500Z,69.17
2018-03-03T01:26:37.906Z,64.97
2018-03-03T01:29:07.331Z,66.40
2018-03-03T01:31:36.719Z,83.63
2018-03-03T01:34:06.101Z,84.40
2018-03-03T01:36:35.609Z,92.03
2018-03-03T01:39:04.948Z,98.67
2018-03-03T01:41:34.341Z,91.97
2018-03-03T01:44:03.753Z,115.07
2018-03-03T01:46:33.383Z,80.90
2018-03-03T01:49:02.822Z,73.30
2018-03-03T01:51:38.019Z,64.43
2018-03-03T01:54:07.466Z,68.80
2018-03-03T01:56:36.855Z,65.50
2018-03-03T01:59:06.477Z,72.97
2018-03-03T02:01:35.893Z,65.57
2018-03-03T02:04:05.275Z,68.97
2018-03-03T02:06:34.775Z,69.93
2018-03-03T02:09:04.172Z,83.65
2018-03-03T02:11:33.624Z,72.40
2018-03-03T02:14:03.013Z,71.70
2018-03-03T02:16:32.431Z,71.17
2018-03-03T02:19:01.814Z,71.77
2018-03-03T02:21:31.270Z,66.47
2018-03-03T02:24:00.643Z,69.90
2018-03-03T02:26:30.096Z,72.53
2018-03-03T02:28:59.639Z,70.77
2018-03-03T02:31:29.077Z,65.80
2018-03-03T02:33:58.505Z,64.90
2018-03-03T02:36:27.927Z,65.83
2018-03-03T02:38:57.357Z,65.97
2018-03-03T02:41:26.774Z,66.83
2018-03-03T02:43:56.157Z,67.27
2018-03-03T02:46:25.563Z,67.37
2018-03-03T02:48:54.939Z,70.03
2018-03-03T02:51:24.460Z,62.07
2018-03-03T02:53:53.924Z,65.83
2018-03-03T02:56:23.403Z,64.40
2018-03-03T02:58:52.778Z,66.30
2018-03-03T03:01:22.213Z,65.50
2018-03-03T03:03:51.593Z,64.73
2018-03-03T03:06:20.960Z,67.70
2018-03-03T03:08:50.419Z,68.50
2018-03-03T03:11:19.839Z,68.03
2018-03-03T03:13:49.235Z,72.00
2018-03-03T03:16:18.641Z,64.03
2018-03-03T03:18:48.032Z,68.83
2018-03-03T03:21:17.435Z,69.37
2018-03-03T03:23:46.837Z,74.53
2018-03-03T03:26:16.215Z,78.50
2018-03-03T03:28:45.660Z,72.53
2018-03-03T03:31:15.099Z,69.07
2018-03-03T03:33:44.559Z,73.43
2018-03-03T03:36:13.913Z,82.23
2018-03-03T03:38:43.300Z,72.90
2018-03-03T03:41:12.701Z,84.27
2018-03-03T03:43:42.122Z,66.33
2018-03-03T03:46:11.495Z,65.00
2018-03-03T03:48:40.953Z,64.93
2018-03-03T03:51:10.446Z,66.93
2018-03-03T03:53:39.860Z,62.23
2018-03-03T03:56:09.259Z,66.77
2018-03-03T03:58:38.667Z,65.20
2018-03-03T04:01:08.126Z,67.80
2018-03-03T04:03:37.512Z,74.43
2018-03-03T04:06:06.890Z,63.77
2018-03-03T04:08:36.374Z,63.63
2018-03-03T04:11:05.753Z,63.77
2018-03-03T04:13:35.213Z,62.93
2018-03-03T04:16:04.616Z,64.30
2018-03-03T04:18:34.067Z,59.90
2018-03-03T04:21:03.438Z,63.47
2018-03-03T04:23:32.943Z,63.13
2018-03-03T04:26:02.319Z,64.90
2018-03-03T04:28:31.719Z,60.90
2018-03-03T04:31:01.158Z,66.47
2018-03-03T04:33:30.556Z,64.70
2018-03-03T04:35:59.966Z,60.33
2018-03-03T04:38:29.390Z,60.43
2018-03-03T04:40:58.828Z,62.30
2018-03-03T04:43:28.248Z,64.33
2018-03-03T04:45:57.661Z,63.33
2018-03-03T04:48:27.072Z,64.47
2018-03-03T04:50:56.584Z,64.57
2018-03-03T04:53:26.009Z,62.73
2018-03-03T04:55:55.559Z,75.03
2018-03-03T04:58:40.739Z,94.17
2018-03-03T05:01:14.945Z,71.20
2018-03-03T05:04:00.037Z,64.13
2018-03-03T05:06:45.100Z,65.53
2018-03-03T05:09:14.553Z,62.63
2018-03-03T05:11:43.962Z,62.40
2018-03-03T05:14:14.283Z,66.20
2018-03-03T05:16:59.508Z,63.87
2018-03-03T05:19:47.803Z,63.93
2018-03-03T05:22:32.879Z,61.50
2018-03-03T05:25:22.092Z,58.13
2018-03-03T05:27:56.199Z,60.00
2018-03-03T05:30:43.444Z,60.20
2018-03-03T05:33:16.400Z,60.33
2018-03-03T05:35:51.723Z,61.73
2018-03-03T05:38:26.843Z,58.13
2018-03-03T05:41:02.047Z,60.73
2018-03-03T05:43:48.253Z,60.03
2018-03-03T05:46:19.595Z,63.30
2018-03-03T05:48:49.750Z,63.93
2018-03-03T05:51:25.082Z,65.13
2018-03-03T05:54:04.393Z,61.57
2018-03-03T05:56:39.691Z,61.03
2018-03-03T05:59:27.792Z,67.63
2018-03-03T06:02:12.128Z,60.00
2018-03-03T06:04:59.192Z,66.30
2018-03-03T06:07:45.284Z,60.07
2018-03-03T06:10:16.436Z,59.03
2018-03-03T06:12:45.827Z,63.50
2018-03-03T06:15:15.245Z,58.13
2018-03-03T06:17:44.698Z,61.80
2018-03-03T06:20:14.175Z,59.60
2018-03-03T06:22:43.597Z,62.73
2018-03-03T06:25:13.004Z,61.97
2018-03-03T06:27:42.392Z,58.10
2018-03-03T06:30:11.906Z,57.07
2018-03-03T06:32:41.299Z,53.63
2018-03-03T06:35:10.667Z,57.20
2018-03-03T06:37:40.103Z,58.90
2018-03-03T06:40:09.499Z,56.87
2018-03-03T06:42:38.876Z,60.40
2018-03-03T06:45:08.247Z,59.73
2018-03-03T06:47:37.675Z,62.07
2018-03-03T06:50:07.104Z,55.90
2018-03-03T06:52:36.499Z,58.43
2018-03-03T06:55:06.026Z,60.87
2018-03-03T06:57:35.412Z,60.37
2018-03-03T07:00:04.890Z,60.40
2018-03-03T07:02:34.426Z,65.00
2018-03-03T07:05:03.816Z,58.80
2018-03-03T07:07:33.198Z,60.03
2018-03-03T07:10:02.629Z,58.17
2018-03-03T07:12:32.048Z,59.93
2018-03-03T07:15:09.992Z,62.93
2018-03-03T07:17:39.397Z,63.00
2018-03-03T07:20:08.782Z,69.37
2018-03-03T07:22:38.188Z,69.40
2018-03-03T07:25:08.039Z,70.00
2018-03-03T07:27:37.505Z,66.87
2018-03-03T07:30:06.876Z,72.40
2018-03-03T07:32:36.275Z,64.53
2018-03-03T07:35:05.675Z,66.33
2018-03-03T07:37:35.066Z,55.33
2018-03-03T07:40:04.483Z,54.10
2018-03-03T07:42:33.885Z,51.87
2018-03-03T07:45:03.309Z,51.57
2018-03-03T07:47:32.699Z,52.90
2018-03-03T07:50:02.105Z,52.60
2018-03-03T07:52:31.572Z,55.10
2018-03-03T07:55:00.978Z,54.30
2018-03-03T07:57:30.411Z,54.10
2018-03-03T07:59:59.878Z,56.20
2018-03-03T08:02:29.295Z,57.10
2018-03-03T08:04:58.719Z,56.80
2018-03-03T08:07:28.171Z,55.13
2018-03-03T08:09:57.551Z,56.37
2018-03-03T08:12:26.925Z,54.87
2018-03-03T08:14:56.303Z,58.47
2018-03-03T08:17:25.712Z,57.03
2018-03-03T08:19:55.137Z,54.93
2018-03-03T08:22:24.528Z,56.67
2018-03-03T08:24:53.928Z,55.07
2018-03-03T08:27:23.310Z,55.67
2018-03-03T08:29:52.727Z,55.07
2018-03-03T08:32:22.168Z,56.60
2018-03-03T08:34:51.545Z,61.53
2018-03-03T08:37:20.946Z,59.70
2018-03-03T08:39:50.525Z,58.73
2018-03-03T08:42:19.316Z,55.67
2018-03-03T08:44:47.455Z,55.80
2018-03-03T08:47:15.616Z,55.03
2018-03-03T08:49:44.517Z,55.73
2018-03-03T08:52:12.700Z,58.23
2018-03-03T08:54:40.867Z,54.40
2018-03-03T08:57:08.980Z,57.23
2018-03-03T08:59:37.081Z,53.87
2018-03-03T09:02:05.172Z,56.50
2018-03-03T09:04:33.346Z,51.80
2018-03-03T09:07:01.444Z,53.17
2018-03-03T09:09:29.607Z,49.50
2018-03-03T09:11:58.569Z,54.20
2018-03-03T09:14:26.677Z,52.30
2018-03-03T09:16:54.788Z,49.83
2018-03-03T09:19:22.925Z,52.37
2018-03-03T09:21:51.100Z,48.27
2018-03-03T09:24:19.269Z,49.67
2018-03-03T09:26:47.369Z,48.80
2018-03-03T09:29:15.598Z,50.53
2018-03-03T09:31:43.741Z,50.73
2018-03-03T09:34:11.850Z,48.37
2018-03-03T09:36:39.959Z,49.23
2018-03-03T09:39:08.880Z,50.77
2018-03-03T09:41:36.971Z,48.10
2018-03-03T09:44:05.090Z,51.23
2018-03-03T09:46:33.215Z,48.90
2018-03-03T09:49:02.183Z,51.43
2018-03-03T09:51:30.394Z,49.63
2018-03-03T09:53:58.507Z,50.93
2018-03-03T09:56:26.605Z,50.07
2018-03-03T09:58:54.839Z,49.03
2018-03-03T10:01:22.963Z,48.33
2018-03-03T10:03:51.108Z,44.03
2018-03-03T10:06:19.536Z,49.60
2018-03-03T10:08:47.688Z,47.37
2018-03-03T10:11:15.903Z,50.57
2018-03-03T10:13:44.031Z,48.70
2018-03-03T10:16:12.156Z,44.67
2018-03-03T10:18:40.345Z,48.07
2018-03-03T10:21:08.509Z,45.33
2018-03-03T10:23:36.670Z,45.03
2018-03-03T10:26:04.795Z,44.40
2018-03-03T10:28:32.916Z,44.77
2018-03-03T10:31:01.038Z,42.00
2018-03-03T10:33:29.195Z,42.83
2018-03-03T10:35:57.357Z,43.93
2018-03-03T10:38:26.208Z,43.67
2018-03-03T10:40:54.473Z,40.67
2018-03-03T10:43:23.340Z,42.17
2018-03-03T10:45:51.473Z,46.00
2018-03-03T10:48:19.689Z,43.97
2018-03-03T10:50:48.093Z,43.03
2018-03-03T10:53:16.218Z,38.57
2018-03-03T10:55:44.371Z,43.13
2018-03-03T10:58:12.486Z,39.33
2018-03-03T11:00:40.632Z,36.63
2018-03-03T11:03:08.779Z,37.40
2018-03-03T11:05:36.973Z,36.63
2018-03-03T11:08:05.145Z,33.50
2018-03-03T11:10:33.243Z,33.00
2018-03-03T11:13:01.388Z,38.77
2018-03-03T11:15:30.256Z,39.37
2018-03-03T11:17:58.812Z,36.73
2018-03-03T11:20:26.931Z,38.13
2018-03-03T11:22:55.102Z,30.30
2018-03-03T11:25:23.971Z,35.50
2018-03-03T11:27:52.135Z,34.60
2018-03-03T11:30:20.247Z,35.40
2018-03-03T11:32:48.413Z,35.33
2018-03-03T11:35:17.290Z,35.77
2018-03-03T11:37:45.457Z,32.60
2018-03-03T11:40:13.648Z,32.30
2018-03-03T11:42:41.794Z,31.27
2018-03-03T11:45:09.920Z,31.07
2018-03-03T11:47:38.045Z,32.57
2018-03-03T11:50:06.397Z,34.20
2018-03-03T11:52:34.551Z,32.60
2018-03-03T11:55:02.656Z,35.83
2018-03-03T11:57:30.844Z,35.43
2018-03-03T11:59:58.986Z,33.77
2018-03-03T12:02:27.981Z,28.90
2018-03-03T12:04:56.957Z,34.03
2018-03-03T12:07:25.150Z,33.17
2018-03-03T12:09:53.249Z,31.47
2018-03-03T12:12:21.362Z,30.03
2018-03-03T12:14:50.253Z,29.53
2018-03-03T12:17:19.158Z,28.77
2018-03-03T12:19:48.040Z,28.87
2018-03-03T12:22:16.219Z,29.20
2018-03-03T12:24:44.273Z,28.20
2018-03-03T12:27:12.377Z,24.40
2018-03-03T12:29:40.522Z,22.70
2018-03-03T12:32:08.666Z,24.43
2018-03-03T12:34:36.838Z,26.63
2018-03-03T12:37:04.968Z,21.03
2018-03-03T12:39:33.878Z,24.27
2018-03-03T12:42:02.004Z,22.87
2018-03-03T12:44:30.172Z,26.37
2018-03-03T12:46:58.313Z,24.27
2018-03-03T12:49:27.180Z,22.60
2018-03-03T12:51:55.286Z,20.83
2018-03-03T12:54:23.391Z,23.33
2018-03-03T12:56:52.300Z,21.00
2018-03-03T12:59:21.180Z,24.33
2018-03-03T13:01:49.340Z,21.70
2018-03-03T13:04:17.508Z,21.23
2018-03-03T13:06:45.617Z,20.60
2018-03-03T13:09:13.963Z,20.73
2018-03-03T13:11:42.068Z,19.10
2018-03-03T13:14:10.214Z,19.37
2018-03-03T13:16:39.082Z,20.40
2018-03-03T13:19:07.219Z,21.77
2018-03-03T13:21:35.338Z,22.33
2018-03-03T13:24:03.501Z,21.67
2018-03-03T13:26:31.616Z,21.90
2018-03-03T13:28:59.823Z,21.83
2018-03-03T13:31:27.978Z,21.67
2018-03-03T13:33:56.147Z,23.33
2018-03-03T13:36:24.287Z,22.27
2018-03-03T13:38:52.505Z,20.70
2018-03-03T13:41:21.437Z,22.40
2018-03-03T13:43:49.645Z,21.40
2018-03-03T13:46:17.838Z,20.00
2018-03-03T13:48:46.035Z,20.87
2018-03-03T13:51:14.177Z,19.87
2018-03-03T13:53:42.307Z,16.43
2018-03-03T13:56:10.410Z,18.83
2018-03-03T13:58:39.321Z,16.57
2018-03-03T14:01:08.263Z,16.80
2018-03-03T14:03:37.138Z,15.20
2018-03-03T14:06:06.088Z,15.10
2018-03-03T14:08:35.064Z,15.23
2018-03-03T14:11:03.217Z,17.20
2018-03-03T14:13:32.100Z,13.70
2018-03-03T14:16:00.215Z,13.10
2018-03-03T14:18:29.133Z,12.27
2018-03-03T14:20:57.300Z,10.97
2018-03-03T14:23:26.227Z,12.80
2018-03-03T14:25:54.365Z,11.53
2018-03-03T14:28:23.339Z,11.17
2018-03-03T14:30:51.433Z,11.23
2018-03-03T14:33:19.601Z,11.07
2018-03-03T14:35:47.763Z,10.10
2018-03-03T14:38:16.672Z,10.57
2018-03-03T14:40:45.601Z,10.67
2018-03-03T14:43:13.700Z,9.70
2018-03-03T14:45:41.927Z,12.30
2018-03-03T14:48:10.024Z,11.03
2018-03-03T14:50:38.941Z,10.30
2018-03-03T14:53:07.109Z,10.90
2018-03-03T14:55:35.966Z,12.43
2018-03-03T14:58:04.075Z,10.60
2018-03-03T15:00:32.234Z,12.57
2018-03-03T15:03:00.453Z,11.77
2018-03-03T15:05:28.574Z,10.63
2018-03-03T15:07:56.796Z,10.80
2018-03-03T15:10:24.925Z,11.43
2018-03-03T15:12:53.053Z,11.30
2018-03-03T15:15:21.180Z,11.73
2018-03-03T15:17:49.270Z,11.77
2018-03-03T15:20:17.465Z,12.13
2018-03-03T15:22:45.563Z,12.97
2018-03-03T15:25:13.694Z,14.20
2018-03-03T15:27:41.837Z,13.13
2018-03-03T15:30:10.732Z,13.50
2018-03-03T15:32:38.871Z,12.07
2018-03-03T15:35:07.074Z,13.90
2018-03-03T15:37:35.246Z,12.47
2018-03-03T15:40:03.395Z,13.00
2018-03-03T15:42:31.499Z,13.90
2018-03-03T15:44:59.717Z,14.37
2018-03-03T15:47:29.954Z,12.57
2018-03-03T15:49:58.041Z,12.50
2018-03-03T15:52:26.209Z,13.07
2018-03-03T15:54:54.391Z,12.03
2018-03-03T15:57:22.487Z,13.17
2018-03-03T15:59:50.640Z,13.10
2018-03-03T16:02:18.727Z,12.40
2018-03-03T16:04:46.882Z,12.73
2018-03-03T16:07:15.801Z,13.83
2018-03-03T16:09:43.918Z,12.77
2018-03-03T16:12:12.138Z,14.50
2018-03-03T16:14:40.219Z,16.33
2018-03-03T16:17:08.342Z,16.00
2018-03-03T16:19:36.456Z,16.57
2018-03-03T16:22:04.634Z,15.10
2018-03-03T16:24:32.793Z,14.23
2018-03-03T16:27:01.642Z,13.70
2018-03-03T16:29:29.815Z,13.47
2018-03-03T16:31:57.934Z,14.30
2018-03-03T16:34:26.086Z,16.03
2018-03-03T16:36:54.219Z,14.03
2018-03-03T16:39:22.447Z,10.57
2018-03-03T16:41:50.540Z,8.83
2018-03-03T16:44:18.651Z,7.60
2018-03-03T16:46:46.779Z,5.93
2018-03-03T16:49:15.669Z,5.00
2018-03-03T16:51:43.768Z,4.50
2018-03-03T16:54:11.969Z,4.37
2018-03-03T16:56:40.836Z,4.57
2018-03-03T16:59:09.001Z,4.73
2018-03-03T17:01:37.137Z,6.10
2018-03-03T17:04:05.235Z,7.20
2018-03-03T17:06:33.441Z,8.40
2018-03-03T17:09:01.604Z,8.77
2018-03-03T17:11:29.676Z,8.67
2018-03-03T17:13:57.821Z,8.20
2018-03-03T17:16:25.952Z,8.03
2018-03-03T17:18:54.101Z,9.47
2018-03-03T17:21:22.256Z,9.73
2018-03-03T17:23:50.423Z,10.07
2018-03-03T17:26:18.588Z,10.07
2018-03-03T17:28:47.511Z,9.47
2018-03-03T17:31:15.628Z,10.27
2018-03-03T17:33:43.772Z,9.00
2018-03-03T17:36:11.861Z,8.20
2018-03-03T17:38:39.961Z,9.50
2018-03-03T17:41:08.180Z,11.07
2018-03-03T17:43:37.074Z,11.73
2018-03-03T17:46:05.346Z,12.80
2018-03-03T17:48:33.463Z,11.83
2018-03-03T17:51:01.578Z,12.70
2018-03-03T17:53:30.455Z,13.90
2018-03-03T17:55:58.553Z,15.60
2018-03-03T17:58:27.477Z,14.00
2018-03-03T18:00:55.667Z,14.87
2018-03-03T18:03:23.796Z,15.40
2018-03-03T18:05:51.935Z,14.97
2018-03-03T18:08:20.091Z,14.97
2018-03-03T18:10:48.274Z,14.40
2018-03-03T18:13:17.102Z,14.77
2018-03-03T18:15:45.266Z,15.87
2018-03-03T18:18:13.415Z,14.50
2018-03-03T18:20:41.598Z,15.10
2018-03-03T18:23:09.696Z,14.33
2018-03-03T18:25:37.820Z,15.07
2018-03-03T18:28:05.957Z,15.40
2018-03-03T18:30:34.088Z,16.83
2018-03-03T18:33:02.271Z,18.17
2018-03-03T18:35:30.380Z,16.27
2018-03-03T18:37:58.561Z,15.83
2018-03-03T18:40:27.522Z,18.27
2018-03-03T18:42:55.651Z,17.47
2018-03-03T18:45:24.575Z,17.50
2018-03-03T18:47:52.722Z,19.57
2018-03-03T18:50:20.848Z,19.70
2018-03-03T18:52:48.979Z,18.50
2018-03-03T18:55:17.131Z,22.80
2018-03-03T18:57:45.279Z,25.23
2018-03-03T19:00:14.236Z,20.63
2018-03-03T19:02:42.396Z,22.03
2018-03-03T19:05:10.551Z,21.13
2018-03-03T19:07:39.439Z,21.00
2018-03-03T19:10:07.601Z,21.00
2018-03-03T19:12:35.811Z,21.40
2018-03-03T19:15:03.918Z,19.90
2018-03-03T19:17:32.104Z,18.80
2018-03-03T19:20:00.245Z,19.53
2018-03-03T19:22:28.352Z,18.63
2018-03-03T19:24:56.478Z,19.10
2018-03-03T19:27:25.380Z,20.47
2018-03-03T19:29:53.529Z,20.33
2018-03-03T19:32:22.461Z,20.73
2018-03-03T19:34:51.378Z,20.83
2018-03-03T19:37:19.557Z,22.57
2018-03-03T19:39:48.464Z,19.90
2018-03-03T19:42:17.374Z,17.30
2018-03-03T19:44:45.620Z,17.77
2018-03-03T19:47:13.832Z,15.97
2018-03-03T19:49:41.927Z,14.80
2018-03-03T19:52:10.826Z,13.27
2018-03-03T19:54:39.802Z,15.50
2018-03-03T19:57:07.939Z,15.20
2018-03-03T19:59:36.077Z,14.27
2018-03-03T20:02:04.178Z,14.87
2018-03-03T20:04:33.075Z,14.97
2018-03-03T20:07:01.186Z,16.60
2018-03-03T20:09:29.309Z,16.10
2018-03-03T20:11:57.448Z,16.53
2018-03-03T20:14:26.346Z,15.13
2018-03-03T20:16:54.452Z,15.63
2018-03-03T20:19:22.621Z,16.23
2018-03-03T20:21:50.765Z,16.10
2018-03-03T20:24:18.930Z,15.67
2018-03-03T20:26:47.104Z,16.20
2018-03-03T20:29:15.200Z,16.50
2018-03-03T20:31:43.364Z,18.00
2018-03-03T20:34:11.456Z,16.27
2018-03-03T20:36:39.589Z,17.93
2018-03-03T20:39:07.725Z,16.93
2018-03-03T20:41:35.893Z,18.10
2018-03-03T20:44:04.757Z,17.63
2018-03-03T20:46:32.990Z,19.30
2018-03-03T20:49:01.881Z,18.53
2018-03-03T20:51:30.828Z,17.13
2018-03-03T20:53:58.944Z,18.50
2018-03-03T20:56:27.078Z,19.40
2018-03-03T20:58:55.194Z,17.33
2018-03-03T21:01:23.337Z,19.13
2018-03-03T21:03:52.272Z,18.20
2018-03-03T21:06:20.455Z,19.37
2018-03-03T21:08:48.591Z,20.07
2018-03-03T21:11:16.792Z,20.53
2018-03-03T21:13:46.544Z,20.00
2018-03-03T21:16:14.679Z,21.23
2018-03-03T21:18:42.880Z,21.17
2018-03-03T21:21:11.775Z,21.20
2018-03-03T21:23:39.978Z,25.23
2018-03-03T21:26:08.169Z,25.00
2018-03-03T21:28:37.090Z,26.83
2018-03-03T21:31:05.188Z,25.37
2018-03-03T21:33:33.373Z,27.10
2018-03-03T21:36:01.589Z,28.90
2018-03-03T21:38:29.713Z,26.87
2018-03-03T21:40:58.647Z,30.10
2018-03-03T21:43:26.851Z,30.00
2018-03-03T21:45:54.992Z,27.97
2018-03-03T21:48:23.125Z,27.27
2018-03-03T21:50:51.249Z,28.70
2018-03-03T21:53:19.381Z,28.43
2018-03-03T21:55:47.569Z,28.50
2018-03-03T21:58:15.717Z,28.83
2018-03-03T22:00:45.037Z,28.20
2018-03-03T22:03:13.953Z,30.07
2018-03-03T22:05:42.098Z,31.47
2018-03-03T22:08:10.328Z,29.00
2018-03-03T22:10:38.474Z,28.57
2018-03-03T22:13:06.616Z,28.57
2018-03-03T22:15:34.789Z,28.20
2018-03-03T22:18:03.694Z,32.27
2018-03-03T22:20:31.870Z,29.03
2018-03-03T22:22:59.993Z,31.17
2018-03-03T22:25:28.151Z,31.83
2018-03-03T22:27:57.059Z,32.13
2018-03-03T22:30:25.200Z,31.03
2018-03-03T22:32:53.342Z,29.63
2018-03-03T22:35:21.465Z,33.10
2018-03-03T22:37:50.361Z,31.90
2018-03-03T22:40:18.490Z,33.80
2018-03-03T22:42:47.347Z,31.37
2018-03-03T22:45:15.514Z,34.30
2018-03-03T22:47:43.614Z,36.43
2018-03-03T22:50:11.787Z,33.03
2018-03-03T22:52:39.956Z,32.13
2018-03-03T22:55:08.057Z,35.30
2018-03-03T22:57:36.173Z,36.83
2018-03-03T23:00:04.350Z,35.27
2018-03-03T23:02:32.458Z,33.93
2018-03-03T23:05:00.630Z,34.13
2018-03-03T23:07:28.764Z,35.57
2018-03-03T23:09:56.915Z,38.10
2018-03-03T23:12:25.044Z,40.13
2018-03-03T23:14:53.143Z,37.43
2018-03-03T23:17:21.313Z,35.77
2018-03-03T23:19:49.461Z,42.27
2018-03-03T23:22:17.612Z,36.53
2018-03-03T23:24:45.750Z,36.17
2018-03-03T23:27:14.653Z,38.40
2018-03-03T23:29:43.580Z,36.47
2018-03-03T23:32:11.693Z,37.07
2018-03-03T23:34:39.850Z,36.87
2018-03-03T23:37:07.979Z,33.93
2018-03-03T23:39:36.194Z,31.27
2018-03-03T23:42:05.071Z,33.40
2018-03-03T23:44:33.198Z,33.73
2018-03-03T23:47:02.227Z,29.33
2018-03-03T23:49:30.458Z,30.40
2018-03-03T23:51:58.559Z,29.00
2018-03-03T23:54:27.481Z,30.53
2018-03-03T23:56:55.622Z,28.57
2018-03-03T23:59:23.901Z,28.10
